Seattle, Washington
Traffic Map
Current Weather Conditions
Seattle, Washington
Few Clouds
Few Clouds
20°
Feels Like: 20°
Wind Chill: 20° Ceiling: Unl
Heat Index: 20° Visibility: 10mi
Dew Point: Wind: 7mph
Humidity: 37% Direction: 320° (NW)
Pressure: 30.04in Gusts: 0mph
Raw Report DataKBFI 260153Z 32006KT 10SM FEW120 20/05 A3004 RMK AO2 SLP172 T02000050
Traffic Incident Summary
Active as of:
Severity:
Category:
InformationThere was an issue retrieving the traffic information for this location. Please try a different location or try again shortly.
Advertisements